createdAt,value
2018-07-09T00:02:25.384Z,16.60
2018-07-09T00:04:53.804Z,16.60
2018-07-09T00:07:22.473Z,16.50
2018-07-09T00:09:50.892Z,16.50
2018-07-09T00:12:19.340Z,16.40
2018-07-09T00:14:47.810Z,16.40
2018-07-09T00:17:16.373Z,16.30
2018-07-09T00:19:44.836Z,16.20
2018-07-09T00:22:13.330Z,16.20
2018-07-09T00:24:41.915Z,16.10
2018-07-09T00:27:10.397Z,16.10
2018-07-09T00:29:38.905Z,16.00
2018-07-09T00:32:07.382Z,16.00
2018-07-09T00:34:35.839Z,16.00
2018-07-09T00:37:04.385Z,16.00
2018-07-09T00:39:32.906Z,16.00
2018-07-09T00:42:01.522Z,15.90
2018-07-09T00:44:30.261Z,15.90
2018-07-09T00:46:58.909Z,15.80
2018-07-09T00:49:27.440Z,15.80
2018-07-09T00:51:56.125Z,15.70
2018-07-09T00:54:24.724Z,15.70
2018-07-09T00:56:53.478Z,15.70
2018-07-09T00:59:22.489Z,15.70
2018-07-09T01:01:51.028Z,15.70
2018-07-09T01:04:19.493Z,15.80
2018-07-09T01:06:48.033Z,15.80
2018-07-09T01:09:16.811Z,15.80
2018-07-09T01:11:46.576Z,15.80
2018-07-09T01:14:15.089Z,15.70
2018-07-09T01:16:45.998Z,15.70
2018-07-09T01:19:15.001Z,15.70
2018-07-09T01:21:43.505Z,15.70
2018-07-09T01:24:11.956Z,15.70
2018-07-09T01:26:40.464Z,15.60
2018-07-09T01:29:09.028Z,15.60
2018-07-09T01:31:37.603Z,15.60
2018-07-09T01:34:06.458Z,15.60
2018-07-09T01:36:35.363Z,15.50
2018-07-09T01:39:04.685Z,15.50
2018-07-09T01:41:33.146Z,15.50
2018-07-09T01:44:02.631Z,15.50
2018-07-09T01:46:31.289Z,15.50
2018-07-09T01:48:59.768Z,15.50
2018-07-09T01:51:28.677Z,15.50
2018-07-09T01:56:25.293Z,15.40
2018-07-09T01:58:53.776Z,15.40
2018-07-09T02:01:22.382Z,15.40
2018-07-09T02:06:24.613Z,15.40
2018-07-09T02:08:53.090Z,15.40
2018-07-09T02:11:28.574Z,15.40
2018-07-09T02:13:57.120Z,15.40
2018-07-09T02:16:25.557Z,15.30
2018-07-09T02:19:01.124Z,15.30
2018-07-09T02:21:29.745Z,15.30
2018-07-09T02:23:58.229Z,15.20
2018-07-09T02:26:26.656Z,15.20
2018-07-09T02:28:55.167Z,15.20
2018-07-09T02:31:23.698Z,15.20
2018-07-09T02:33:52.170Z,15.10
2018-07-09T02:36:20.585Z,15.10
2018-07-09T02:38:49.045Z,15.00
2018-07-09T02:41:24.464Z,15.00
2018-07-09T02:43:53.208Z,15.00
2018-07-09T02:46:21.853Z,14.90
2018-07-09T02:48:52.697Z,14.90
2018-07-09T02:51:21.150Z,14.90
2018-07-09T02:53:49.612Z,14.80
2018-07-09T02:56:18.034Z,14.80
2018-07-09T02:58:46.554Z,14.80
2018-07-09T03:01:15.260Z,14.70
2018-07-09T03:03:43.800Z,14.60
2018-07-09T03:06:12.249Z,14.50
2018-07-09T03:08:40.669Z,14.40
2018-07-09T03:11:09.142Z,14.30
2018-07-09T03:13:37.677Z,14.20
2018-07-09T03:16:06.235Z,14.10
2018-07-09T03:18:34.659Z,14.10
2018-07-09T03:21:03.161Z,13.90
2018-07-09T03:23:31.592Z,13.90
2018-07-09T03:26:00.064Z,14.00
2018-07-09T03:28:28.533Z,14.00
2018-07-09T03:30:57.008Z,14.00
2018-07-09T03:33:25.445Z,14.00
2018-07-09T03:35:53.905Z,14.10
2018-07-09T03:38:22.368Z,14.10
2018-07-09T03:40:50.857Z,14.20
2018-07-09T03:43:19.337Z,14.20
2018-07-09T03:45:47.841Z,14.20
2018-07-09T03:48:16.293Z,14.20
2018-07-09T03:50:44.760Z,14.10
2018-07-09T03:53:13.249Z,14.10
2018-07-09T03:55:41.779Z,14.10
2018-07-09T03:58:10.271Z,14.00
2018-07-09T04:00:38.729Z,14.10
2018-07-09T04:03:07.159Z,14.10
2018-07-09T04:05:35.661Z,14.20
2018-07-09T04:08:04.268Z,14.30
2018-07-09T04:10:32.739Z,14.50
2018-07-09T04:13:01.173Z,14.60
2018-07-09T04:15:29.610Z,14.70
2018-07-09T04:17:58.061Z,14.90
2018-07-09T04:20:26.528Z,14.90
2018-07-09T04:22:54.953Z,14.90
2018-07-09T04:25:23.470Z,14.90
2018-07-09T04:27:51.897Z,15.00
2018-07-09T04:30:20.368Z,15.20
2018-07-09T04:32:48.782Z,15.30
2018-07-09T04:35:17.233Z,15.50
2018-07-09T04:37:45.680Z,15.50
2018-07-09T04:40:14.148Z,15.60
2018-07-09T04:42:42.755Z,15.70
2018-07-09T04:45:11.234Z,15.70
2018-07-09T04:47:39.649Z,16.00
2018-07-09T04:50:08.131Z,16.10
2018-07-09T04:52:36.568Z,16.20
2018-07-09T04:55:05.029Z,16.30
2018-07-09T04:57:33.513Z,16.40
2018-07-09T05:00:02.098Z,16.60
2018-07-09T05:02:30.595Z,16.80
2018-07-09T05:04:59.038Z,16.80
2018-07-09T05:07:27.472Z,16.90
2018-07-09T05:09:55.907Z,17.20
2018-07-09T05:12:24.489Z,17.40
2018-07-09T05:14:53.009Z,17.40
2018-07-09T05:17:21.493Z,17.80
2018-07-09T05:19:49.916Z,17.90
2018-07-09T05:22:18.364Z,17.90
2018-07-09T05:24:47.005Z,18.00
2018-07-09T05:27:15.492Z,18.00
2018-07-09T05:29:44.116Z,18.10
2018-07-09T05:32:12.716Z,18.10
2018-07-09T05:34:41.380Z,18.10
2018-07-09T05:37:09.892Z,18.40
2018-07-09T05:39:38.633Z,18.50
2018-07-09T05:42:07.153Z,18.80
2018-07-09T05:44:35.990Z,19.00
2018-07-09T05:47:05.036Z,19.30
2018-07-09T05:49:33.585Z,19.40
2018-07-09T05:52:02.125Z,19.40
2018-07-09T05:54:30.603Z,19.50
2018-07-09T05:56:59.139Z,19.60
2018-07-09T05:59:27.558Z,19.60
2018-07-09T06:01:56.059Z,20.30
2018-07-09T06:04:24.727Z,20.80
2018-07-09T06:06:53.339Z,20.80
2018-07-09T06:09:21.850Z,20.50
2018-07-09T06:11:50.367Z,20.60
2018-07-09T06:14:18.849Z,20.80
2018-07-09T06:16:47.313Z,20.90
2018-07-09T06:19:15.991Z,21.20
2018-07-09T06:21:44.642Z,21.40
2018-07-09T06:24:13.193Z,21.80
2018-07-09T06:26:41.749Z,21.90
2018-07-09T06:29:10.481Z,22.30
2018-07-09T06:31:39.036Z,23.30
2018-07-09T06:34:07.596Z,24.20
2018-07-09T06:36:36.281Z,25.60
2018-07-09T06:39:05.998Z,25.70
2018-07-09T06:41:34.753Z,26.10
2018-07-09T06:44:03.320Z,26.40
2018-07-09T06:46:31.964Z,27.10
2018-07-09T06:49:00.424Z,27.40
2018-07-09T06:51:28.916Z,27.20
2018-07-09T06:53:57.364Z,27.60
2018-07-09T06:56:26.018Z,29.00
2018-07-09T06:58:54.976Z,30.30
2018-07-09T07:01:23.836Z,31.60
2018-07-09T07:03:52.812Z,31.40
2018-07-09T07:06:21.571Z,30.70
2018-07-09T07:08:50.075Z,30.40
2018-07-09T07:13:46.815Z,31.30
2018-07-09T07:16:15.300Z,32.90
2018-07-09T07:18:44.933Z,34.10
2018-07-09T07:23:41.645Z,35.30
2018-07-09T07:26:10.103Z,34.50
2018-07-09T07:28:38.597Z,34.60
2018-07-09T07:31:07.081Z,35.20
2018-07-09T07:33:35.608Z,35.70
2018-07-09T07:36:04.124Z,36.30
2018-07-09T07:38:32.617Z,36.70
2018-07-09T07:41:01.078Z,37.80
2018-07-09T07:43:29.533Z,38.10
2018-07-09T07:45:58.025Z,36.90
2018-07-09T07:48:26.606Z,37.00
2018-07-09T07:50:55.141Z,38.60
2018-07-09T07:53:23.800Z,38.80
2018-07-09T07:55:52.245Z,37.80
2018-07-09T07:58:20.744Z,37.90
2018-07-09T08:00:49.182Z,37.60
2018-07-09T08:03:17.742Z,39.20
2018-07-09T08:05:46.566Z,40.20
2018-07-09T08:08:15.218Z,40.60
2018-07-09T08:10:43.916Z,41.20
2018-07-09T08:13:27.988Z,41.90
2018-07-09T08:15:41.025Z,42.20
2018-07-09T08:18:09.600Z,41.90
2018-07-09T08:20:38.284Z,41.90
2018-07-09T08:23:07.097Z,42.10
2018-07-09T08:25:35.913Z,41.50
2018-07-09T08:28:05.089Z,39.60
2018-07-09T08:30:33.964Z,38.40
2018-07-09T08:33:02.729Z,38.30
2018-07-09T08:35:31.465Z,37.50
2018-07-09T08:38:00.210Z,37.90
2018-07-09T08:40:28.651Z,38.30
2018-07-09T08:42:57.116Z,37.50
2018-07-09T08:45:25.963Z,36.10
2018-07-09T08:47:54.759Z,35.60
2018-07-09T08:50:25.539Z,36.10
2018-07-09T08:52:54.238Z,36.80
2018-07-09T08:55:22.851Z,37.50
2018-07-09T08:57:51.291Z,38.00
2018-07-09T09:02:49.203Z,37.40
2018-07-09T09:05:17.729Z,37.20
2018-07-09T09:07:46.571Z,37.30
2018-07-09T09:10:15.095Z,39.10
2018-07-09T09:12:43.572Z,40.30
2018-07-09T09:15:12.045Z,38.90
2018-07-09T09:17:40.732Z,38.40
2018-07-09T09:20:08.932Z,39.70
2018-07-09T09:22:37.394Z,40.20
2018-07-09T09:25:06.308Z,39.60
2018-07-09T09:27:34.832Z,39.70
2018-07-09T09:30:03.348Z,40.00
2018-07-09T09:32:31.806Z,39.20
2018-07-09T09:35:00.273Z,39.30
2018-07-09T09:37:28.765Z,38.30
2018-07-09T09:39:57.351Z,38.60
2018-07-09T09:42:25.962Z,38.80
2018-07-09T09:44:54.404Z,38.40
2018-07-09T09:47:22.926Z,38.20
2018-07-09T09:49:51.424Z,37.90
2018-07-09T09:52:19.853Z,38.20
2018-07-09T09:54:48.308Z,36.90
2018-07-09T09:57:16.817Z,36.90
2018-07-09T09:59:45.288Z,37.50
2018-07-09T10:02:13.904Z,37.30
2018-07-09T10:04:42.421Z,37.70
2018-07-09T10:07:10.837Z,38.60
2018-07-09T10:09:39.396Z,39.00
2018-07-09T10:12:07.885Z,36.70
2018-07-09T10:17:04.873Z,34.30
2018-07-09T10:19:33.340Z,32.00
2018-07-09T10:22:01.828Z,30.90
2018-07-09T10:24:30.309Z,29.60
2018-07-09T10:26:58.775Z,28.70
2018-07-09T10:29:27.376Z,28.60
2018-07-09T10:31:55.905Z,30.90
2018-07-09T10:34:24.507Z,31.80
2018-07-09T10:36:52.941Z,32.80
2018-07-09T10:39:21.457Z,33.70
2018-07-09T10:41:49.929Z,34.20
2018-07-09T10:44:18.419Z,36.20
2018-07-09T10:46:46.985Z,38.00
2018-07-09T10:49:15.442Z,38.10
2018-07-09T10:51:43.909Z,36.80
2018-07-09T10:54:12.364Z,35.90
2018-07-09T10:56:41.082Z,34.10
2018-07-09T10:59:09.512Z,34.10
2018-07-09T11:01:37.992Z,33.50
2018-07-09T11:04:06.677Z,32.10
2018-07-09T11:06:35.153Z,30.60
2018-07-09T11:09:04.384Z,28.80
2018-07-09T11:11:32.854Z,28.50
2018-07-09T11:14:01.313Z,28.20
2018-07-09T11:16:29.805Z,28.00
2018-07-09T11:18:58.304Z,28.00
2018-07-09T11:21:26.839Z,27.90
2018-07-09T11:23:55.271Z,27.40
2018-07-09T11:26:23.827Z,27.10
2018-07-09T11:28:52.302Z,27.00
2018-07-09T11:31:20.761Z,26.50
2018-07-09T11:33:49.212Z,26.40
2018-07-09T11:36:17.689Z,26.50
2018-07-09T11:38:46.290Z,26.70
2018-07-09T11:41:14.761Z,26.80
2018-07-09T11:43:43.196Z,26.80
2018-07-09T11:46:11.653Z,26.80
2018-07-09T11:48:40.121Z,26.90
2018-07-09T11:51:08.614Z,26.90
2018-07-09T11:53:37.021Z,27.20
2018-07-09T11:56:05.581Z,27.40
2018-07-09T11:58:34.080Z,27.30
2018-07-09T12:01:02.570Z,27.50
2018-07-09T12:03:31.009Z,27.60
2018-07-09T12:05:59.500Z,27.50
2018-07-09T12:10:56.114Z,27.10
2018-07-09T12:13:24.542Z,26.50
2018-07-09T12:15:53.017Z,26.40
2018-07-09T12:18:21.488Z,26.30
2018-07-09T12:20:49.938Z,26.00
2018-07-09T12:23:18.522Z,25.90
2018-07-09T12:25:47.112Z,25.90
2018-07-09T12:28:15.652Z,25.80
2018-07-09T12:30:44.089Z,25.90
2018-07-09T12:33:12.552Z,26.10
2018-07-09T12:35:41.033Z,26.30
2018-07-09T12:40:37.656Z,27.00
2018-07-09T12:43:06.462Z,27.20
2018-07-09T12:48:03.317Z,27.40
2018-07-09T12:50:31.751Z,27.30
2018-07-09T12:53:00.230Z,27.20
2018-07-09T12:55:28.714Z,27.10
2018-07-09T12:57:57.199Z,27.20
2018-07-09T13:00:25.641Z,27.20
2018-07-09T13:02:54.133Z,27.20
2018-07-09T13:05:22.560Z,27.20
2018-07-09T13:07:51.028Z,27.20
2018-07-09T13:12:47.725Z,26.80
2018-07-09T13:15:16.160Z,26.90
2018-07-09T13:17:44.642Z,26.90
2018-07-09T13:20:13.119Z,26.90
2018-07-09T13:22:41.568Z,26.90
2018-07-09T13:25:09.982Z,26.90
2018-07-09T13:27:38.480Z,26.80
2018-07-09T13:30:07.017Z,26.90
2018-07-09T13:32:35.535Z,26.70
2018-07-09T13:35:04.023Z,26.60
2018-07-09T13:37:32.480Z,26.50
2018-07-09T13:40:03.273Z,26.60
2018-07-09T13:42:32.674Z,26.70
2018-07-09T13:45:01.212Z,27.10
2018-07-09T13:47:29.701Z,27.30
2018-07-09T13:49:58.159Z,27.60
2018-07-09T13:52:26.671Z,27.70
2018-07-09T13:54:55.109Z,27.40
2018-07-09T13:57:23.664Z,27.40
2018-07-09T13:59:52.111Z,27.40
2018-07-09T14:02:20.577Z,27.10
2018-07-09T14:04:49.231Z,26.80
2018-07-09T14:07:17.759Z,26.60
2018-07-09T14:09:46.256Z,26.50
2018-07-09T14:12:14.765Z,26.50
2018-07-09T14:14:43.201Z,26.40
2018-07-09T14:17:11.697Z,26.40
2018-07-09T14:20:18.445Z,26.10
2018-07-09T14:22:46.908Z,26.20
2018-07-09T14:25:15.425Z,26.20
2018-07-09T14:27:43.952Z,26.20
2018-07-09T14:30:12.422Z,26.20
2018-07-09T14:32:41.184Z,26.20
2018-07-09T14:35:09.628Z,26.30
2018-07-09T14:37:38.153Z,26.10
2018-07-09T14:40:06.828Z,26.20
2018-07-09T14:42:35.651Z,26.10
2018-07-09T14:45:04.603Z,25.70
2018-07-09T14:47:33.294Z,25.60
2018-07-09T14:50:02.058Z,25.60
2018-07-09T14:52:30.873Z,25.60
2018-07-09T14:54:59.732Z,25.60
2018-07-09T14:57:28.318Z,25.50
2018-07-09T14:59:56.806Z,25.70
2018-07-09T15:02:25.329Z,25.80
2018-07-09T15:04:53.804Z,25.90
2018-07-09T15:07:22.805Z,26.00
2018-07-09T15:09:51.469Z,26.00
2018-07-09T15:12:19.998Z,25.80
2018-07-09T15:14:48.462Z,25.70
2018-07-09T15:17:16.954Z,25.60
2018-07-09T15:19:45.445Z,25.50
2018-07-09T15:22:13.880Z,25.40
2018-07-09T15:24:42.332Z,25.40
2018-07-09T15:27:10.842Z,25.30
2018-07-09T15:32:18.602Z,25.20
2018-07-09T15:34:47.154Z,25.10
2018-07-09T15:37:15.665Z,25.00
2018-07-09T15:39:44.195Z,25.00
2018-07-09T15:42:12.713Z,24.90
2018-07-09T15:44:41.194Z,24.80
2018-07-09T15:47:09.706Z,24.80
2018-07-09T15:49:38.416Z,24.80
2018-07-09T15:52:06.893Z,24.80
2018-07-09T15:54:35.422Z,24.70
2018-07-09T15:57:04.092Z,24.80
2018-07-09T15:59:32.693Z,24.90
2018-07-09T16:02:01.157Z,25.00
2018-07-09T16:04:29.774Z,25.10
2018-07-09T16:06:58.235Z,25.00
2018-07-09T16:09:26.733Z,24.90
2018-07-09T16:11:55.254Z,25.00
2018-07-09T16:14:23.746Z,25.00
2018-07-09T16:16:52.301Z,25.10
2018-07-09T16:19:20.769Z,25.20
2018-07-09T16:21:49.239Z,25.20
2018-07-09T16:24:17.696Z,25.10
2018-07-09T16:26:46.159Z,25.00
2018-07-09T16:29:14.778Z,25.00
2018-07-09T16:34:11.397Z,25.10
2018-07-09T16:36:39.851Z,25.10
2018-07-09T16:39:08.609Z,25.20
2018-07-09T16:41:37.085Z,25.20
2018-07-09T16:44:05.663Z,25.20
2018-07-09T16:46:34.190Z,25.30
2018-07-09T16:49:02.713Z,25.30
2018-07-09T16:51:31.232Z,25.40
2018-07-09T16:53:59.724Z,25.50
2018-07-09T16:56:28.170Z,25.50
2018-07-09T16:58:56.689Z,25.70
2018-07-09T17:01:25.181Z,25.70
2018-07-09T17:03:53.718Z,25.70
2018-07-09T17:06:22.237Z,25.70
2018-07-09T17:08:50.782Z,25.60
2018-07-09T17:11:19.239Z,25.50
2018-07-09T17:13:47.700Z,25.60
2018-07-09T17:16:16.160Z,25.50
2018-07-09T17:18:44.612Z,25.50
2018-07-09T17:21:13.097Z,25.50
2018-07-09T17:23:41.541Z,25.40
2018-07-09T17:26:09.989Z,25.20
2018-07-09T17:28:38.424Z,25.30
2018-07-09T17:31:06.910Z,25.30
2018-07-09T17:33:35.333Z,25.30
2018-07-09T17:36:03.841Z,25.20
2018-07-09T17:38:32.361Z,25.20
2018-07-09T17:41:00.809Z,25.10
2018-07-09T17:43:29.252Z,25.20
2018-07-09T17:45:57.729Z,25.20
2018-07-09T17:48:26.175Z,25.10
2018-07-09T17:53:22.780Z,25.00
2018-07-09T17:55:51.278Z,25.00
2018-07-09T17:58:19.969Z,24.90
2018-07-09T18:00:48.430Z,24.70
2018-07-09T18:03:17.068Z,24.70
2018-07-09T18:05:45.534Z,24.50
2018-07-09T18:08:13.981Z,24.50
2018-07-09T18:10:42.485Z,24.40
2018-07-09T18:13:11.081Z,24.30
2018-07-09T18:15:39.816Z,24.20
2018-07-09T18:18:08.206Z,24.20
2018-07-09T18:20:36.686Z,24.20
2018-07-09T18:23:05.414Z,24.10
2018-07-09T18:25:33.933Z,24.10
2018-07-09T18:28:02.398Z,24.00
2018-07-09T18:30:30.885Z,23.80
2018-07-09T18:32:59.530Z,23.80
2018-07-09T18:35:27.998Z,23.70
2018-07-09T18:37:56.401Z,23.70
2018-07-09T18:40:24.968Z,23.60
2018-07-09T18:42:53.580Z,23.30
2018-07-09T18:45:22.249Z,23.20
2018-07-09T18:47:50.701Z,23.00
2018-07-09T18:50:19.209Z,22.90
2018-07-09T18:52:47.622Z,22.80
2018-07-09T18:55:16.186Z,22.70
2018-07-09T18:57:44.721Z,22.60
2018-07-09T19:00:13.171Z,22.50
2018-07-09T19:02:41.630Z,22.40
2018-07-09T19:05:10.105Z,22.20
2018-07-09T19:07:38.593Z,22.10
2018-07-09T19:10:48.409Z,22.10
2018-07-09T19:13:17.597Z,22.00
2018-07-09T19:15:46.134Z,21.90
2018-07-09T19:18:26.968Z,21.90
2018-07-09T19:21:35.912Z,21.80
2018-07-09T19:24:04.395Z,21.70
2018-07-09T19:26:31.822Z,21.60
2018-07-09T19:28:59.160Z,21.50
2018-07-09T19:31:26.522Z,21.40
2018-07-09T19:33:53.826Z,21.40
2018-07-09T19:36:21.187Z,21.30
2018-07-09T19:38:49.110Z,21.30
2018-07-09T19:41:16.465Z,21.20
2018-07-09T19:43:43.783Z,21.10
2018-07-09T19:46:11.185Z,21.00
2018-07-09T19:48:38.701Z,20.90
2018-07-09T19:51:06.021Z,20.90
2018-07-09T19:53:33.398Z,20.90
2018-07-09T19:56:00.705Z,20.80
2018-07-09T19:58:28.172Z,20.80
2018-07-09T20:00:55.495Z,20.70
2018-07-09T20:03:22.834Z,20.70
2018-07-09T20:05:50.338Z,20.60
2018-07-09T20:08:17.793Z,20.60
2018-07-09T20:10:50.437Z,20.60
2018-07-09T20:13:23.041Z,20.60
2018-07-09T20:15:55.685Z,20.50
2018-07-09T20:18:23.089Z,20.40
2018-07-09T20:20:50.419Z,20.30
2018-07-09T20:23:17.734Z,20.20
2018-07-09T20:25:45.304Z,20.20
2018-07-09T20:28:12.677Z,20.20
2018-07-09T20:30:39.993Z,20.20
2018-07-09T20:33:07.414Z,20.20
2018-07-09T20:38:02.436Z,20.00
2018-07-09T20:40:29.761Z,20.10
2018-07-09T20:42:57.105Z,20.00
2018-07-09T20:45:24.493Z,20.00
2018-07-09T20:47:52.027Z,19.90
2018-07-09T20:50:19.425Z,19.90
2018-07-09T20:52:46.777Z,19.80
2018-07-09T20:55:14.093Z,19.70
2018-07-09T20:57:41.449Z,19.60
2018-07-09T21:00:08.997Z,19.60
2018-07-09T21:02:36.301Z,19.60
2018-07-09T21:05:03.631Z,19.60
2018-07-09T21:07:31.045Z,19.60
2018-07-09T21:09:58.874Z,19.60
2018-07-09T21:12:26.200Z,19.50
2018-07-09T21:14:53.753Z,19.50
2018-07-09T21:17:21.068Z,19.50
2018-07-09T21:19:48.425Z,19.60
2018-07-09T21:22:15.820Z,19.60
2018-07-09T21:24:43.242Z,19.60
2018-07-09T21:27:10.567Z,19.50
2018-07-09T21:32:05.500Z,19.50
2018-07-09T21:34:33.108Z,19.50
2018-07-09T21:37:00.437Z,19.50
2018-07-09T21:39:27.888Z,19.50
2018-07-09T21:41:55.418Z,19.50
2018-07-09T21:44:22.772Z,19.50
2018-07-09T21:46:50.123Z,19.50
2018-07-09T21:49:18.420Z,19.40
2018-07-09T21:51:45.737Z,19.40
2018-07-09T21:54:34.463Z,19.30
2018-07-09T21:57:29.443Z,19.40
2018-07-09T21:59:56.914Z,19.40
2018-07-09T22:02:24.305Z,19.40
2018-07-09T22:04:51.642Z,19.40
2018-07-09T22:07:19.108Z,19.40
2018-07-09T22:09:46.501Z,19.40
2018-07-09T22:12:13.832Z,19.30
2018-07-09T22:14:41.165Z,19.30
2018-07-09T22:17:08.465Z,19.30
2018-07-09T22:19:35.819Z,19.30
2018-07-09T22:22:03.130Z,19.20
2018-07-09T22:24:30.791Z,19.20
2018-07-09T22:26:58.095Z,19.20
2018-07-09T22:29:25.435Z,19.20
2018-07-09T22:31:53.935Z,19.20
2018-07-09T22:34:22.397Z,19.10
2018-07-09T22:36:50.822Z,19.00
2018-07-09T22:39:19.272Z,19.00
2018-07-09T22:41:47.722Z,18.90
2018-07-09T22:44:19.436Z,18.90
2018-07-09T22:46:48.288Z,18.70
2018-07-09T22:49:16.974Z,18.60
2018-07-09T22:54:14.361Z,18.60
2018-07-09T22:56:42.891Z,18.50
2018-07-09T22:59:11.665Z,18.50
2018-07-09T23:01:40.493Z,18.40
2018-07-09T23:04:09.569Z,18.40
2018-07-09T23:06:38.021Z,18.40
2018-07-09T23:09:19.445Z,18.30
2018-07-09T23:16:39.679Z,18.30
2018-07-09T23:19:24.980Z,18.10
2018-07-09T23:22:04.602Z,18.00
2018-07-09T23:24:31.920Z,18.00
2018-07-09T23:26:59.368Z,17.90
2018-07-09T23:29:26.727Z,17.90
2018-07-09T23:31:54.076Z,17.90
2018-07-09T23:36:48.984Z,17.80
2018-07-09T23:39:16.281Z,17.80
2018-07-09T23:41:43.613Z,17.70
2018-07-09T23:44:10.958Z,17.70
2018-07-09T23:46:38.285Z,17.70
2018-07-09T23:49:05.666Z,17.60
2018-07-09T23:51:33.015Z,17.60
2018-07-09T23:54:00.515Z,17.60
2018-07-09T23:57:11.048Z,17.60
2018-07-09T23:59:51.772Z,17.60
